createdAt,value
2022-11-20T00:01:55.577Z,9.53
2022-11-20T00:04:25.038Z,8.90
2022-11-20T00:06:54.563Z,8.80
2022-11-20T00:09:26.660Z,9.03
2022-11-20T00:11:56.172Z,9.47
2022-11-20T00:14:25.604Z,10.03
2022-11-20T00:16:55.074Z,9.23
2022-11-20T00:19:24.523Z,8.70
2022-11-20T00:21:56.451Z,9.63
2022-11-20T00:24:28.578Z,9.07
2022-11-20T00:26:58.137Z,8.33
2022-11-20T00:29:27.549Z,8.50
2022-11-20T00:31:57.015Z,7.47
2022-11-20T00:34:26.490Z,8.37
2022-11-20T00:36:55.997Z,8.27
2022-11-20T00:39:28.118Z,8.50
2022-11-20T00:41:57.638Z,7.73
2022-11-20T00:44:27.077Z,8.47
2022-11-20T00:46:56.588Z,7.40
2022-11-20T00:49:25.993Z,8.07
2022-11-20T00:51:55.570Z,8.43
2022-11-20T00:54:25.158Z,7.50
2022-11-20T00:56:59.032Z,8.50
2022-11-20T00:59:28.619Z,7.90
2022-11-20T01:01:58.098Z,7.73
2022-11-20T01:04:27.632Z,7.67
2022-11-20T01:06:57.200Z,7.93
2022-11-20T01:09:26.795Z,8.60
2022-11-20T01:12:00.188Z,8.67
2022-11-20T01:14:29.979Z,8.67
2022-11-20T01:16:59.442Z,7.87
2022-11-20T01:19:28.925Z,7.73
2022-11-20T01:21:58.706Z,8.50
2022-11-20T01:24:28.212Z,8.27
2022-11-20T01:27:00.471Z,8.10
2022-11-20T01:29:29.977Z,7.40
2022-11-20T01:31:59.449Z,8.07
2022-11-20T01:34:29.016Z,7.60
2022-11-20T01:36:58.563Z,7.70
2022-11-20T01:39:29.020Z,8.20
2022-11-20T01:42:13.541Z,8.43
2022-11-20T01:45:00.685Z,7.83
2022-11-20T01:47:35.579Z,8.30
2022-11-20T01:50:07.748Z,8.10
2022-11-20T01:52:38.928Z,8.77
2022-11-20T01:55:10.927Z,7.50
2022-11-20T01:57:43.789Z,8.57
2022-11-20T02:00:15.004Z,8.37
2022-11-20T02:02:45.482Z,7.63
2022-11-20T02:05:18.410Z,8.17
2022-11-20T02:07:48.306Z,8.20
2022-11-20T02:10:18.229Z,8.17
2022-11-20T02:13:02.697Z,8.43
2022-11-20T02:15:32.246Z,8.40
2022-11-20T02:18:01.810Z,7.73
2022-11-20T02:20:31.411Z,8.37
2022-11-20T02:23:02.789Z,7.73
2022-11-20T02:25:36.753Z,7.23
2022-11-20T02:28:06.710Z,7.97
2022-11-20T02:30:36.208Z,8.53
2022-11-20T02:33:05.729Z,7.90
2022-11-20T02:35:46.422Z,7.73
2022-11-20T02:38:16.790Z,7.57
2022-11-20T02:40:54.137Z,8.00
2022-11-20T02:43:24.916Z,8.77
2022-11-20T02:45:54.390Z,8.03
2022-11-20T02:48:25.311Z,9.07
2022-11-20T02:50:54.893Z,7.13
2022-11-20T02:53:24.350Z,8.47
2022-11-20T02:55:56.573Z,8.33
2022-11-20T02:58:26.148Z,8.67
2022-11-20T03:00:56.172Z,8.07
2022-11-20T03:03:26.432Z,7.33
2022-11-20T03:05:55.926Z,7.57
2022-11-20T03:08:25.323Z,7.27
2022-11-20T03:10:57.458Z,8.27
2022-11-20T03:13:28.551Z,8.30
2022-11-20T03:15:58.009Z,7.20
2022-11-20T03:18:27.533Z,8.47
2022-11-20T03:21:00.706Z,8.57
2022-11-20T03:23:32.335Z,7.77
2022-11-20T03:26:14.014Z,8.47
2022-11-20T03:28:43.522Z,7.63
2022-11-20T03:31:14.085Z,7.57
2022-11-20T03:33:44.070Z,7.77
2022-11-20T03:36:14.915Z,8.30
2022-11-20T03:38:44.820Z,8.50
2022-11-20T03:41:18.330Z,8.17
2022-11-20T03:43:50.764Z,7.47
2022-11-20T03:46:20.319Z,7.97
2022-11-20T03:48:51.966Z,8.33
2022-11-20T03:51:22.933Z,8.40
2022-11-20T03:53:53.614Z,8.03
2022-11-20T03:56:26.924Z,7.43
2022-11-20T03:58:56.442Z,8.13
2022-11-20T04:01:26.921Z,7.90
2022-11-20T04:03:56.993Z,8.83
2022-11-20T04:06:27.171Z,7.57
2022-11-20T04:08:57.906Z,8.13
2022-11-20T04:11:31.055Z,8.53
2022-11-20T04:14:01.328Z,8.77
2022-11-20T04:16:32.947Z,8.13
2022-11-20T04:19:03.317Z,8.73
2022-11-20T04:21:33.231Z,8.60
2022-11-20T04:24:02.790Z,7.87
2022-11-20T04:26:35.392Z,9.10
2022-11-20T04:29:05.465Z,7.90
2022-11-20T04:31:35.880Z,8.37
2022-11-20T04:34:05.934Z,8.20
2022-11-20T04:36:35.966Z,8.03
2022-11-20T04:39:06.808Z,8.57
2022-11-20T04:41:39.816Z,8.63
2022-11-20T04:44:09.557Z,8.77
2022-11-20T04:46:39.824Z,8.17
2022-11-20T04:49:09.624Z,8.77
2022-11-20T04:51:39.092Z,8.93
2022-11-20T04:54:09.076Z,9.47
2022-11-20T04:56:41.092Z,9.17
2022-11-20T04:59:10.632Z,9.53
2022-11-20T05:01:40.330Z,9.00
2022-11-20T05:04:09.905Z,8.90
2022-11-20T05:06:39.352Z,8.40
2022-11-20T05:09:08.817Z,9.13
2022-11-20T05:11:40.969Z,9.10
2022-11-20T05:14:10.552Z,8.40
2022-11-20T05:16:40.354Z,8.53
2022-11-20T05:19:09.832Z,9.17
2022-11-20T05:21:39.315Z,8.03
2022-11-20T05:24:09.231Z,10.20
2022-11-20T05:26:41.298Z,9.17
2022-11-20T05:29:10.861Z,9.83
2022-11-20T05:31:40.301Z,8.90
2022-11-20T05:34:09.951Z,8.90
2022-11-20T05:36:39.453Z,8.93
2022-11-20T05:39:09.060Z,8.90
2022-11-20T05:41:41.146Z,8.87
2022-11-20T05:44:10.627Z,9.10
2022-11-20T05:46:40.312Z,10.47
2022-11-20T05:49:09.845Z,11.00
2022-11-20T05:51:39.290Z,9.60
2022-11-20T05:54:08.880Z,10.13
2022-11-20T05:56:40.935Z,9.83
2022-11-20T05:59:10.578Z,10.50
2022-11-20T06:01:40.081Z,9.43
2022-11-20T06:04:09.589Z,9.37
2022-11-20T06:06:39.059Z,9.57
2022-11-20T06:09:08.542Z,9.30
2022-11-20T06:11:37.986Z,10.10
2022-11-20T06:14:10.289Z,10.13
2022-11-20T06:16:40.010Z,8.67
2022-11-20T06:19:09.432Z,9.90
2022-11-20T06:21:38.964Z,9.20
2022-11-20T06:24:12.733Z,8.33
2022-11-20T06:26:42.268Z,9.93
2022-11-20T06:29:14.460Z,10.03
2022-11-20T06:31:43.942Z,8.53
2022-11-20T06:34:13.367Z,10.47
2022-11-20T06:36:42.869Z,9.23
2022-11-20T06:39:12.326Z,9.27
2022-11-20T06:41:41.878Z,9.20
2022-11-20T06:44:14.052Z,8.67
2022-11-20T06:46:43.518Z,9.73
2022-11-20T06:49:12.963Z,9.67
2022-11-20T06:51:42.576Z,9.47
2022-11-20T06:54:11.980Z,9.67
2022-11-20T06:56:41.544Z,10.37
2022-11-20T06:59:11.039Z,9.60
2022-11-20T07:01:43.152Z,9.83
2022-11-20T07:04:12.702Z,10.40
2022-11-20T07:06:42.128Z,9.90
2022-11-20T07:09:13.007Z,10.07
2022-11-20T07:11:42.616Z,8.93
2022-11-20T07:14:12.034Z,10.27
2022-11-20T07:16:44.163Z,8.87
2022-11-20T07:19:13.724Z,10.13
2022-11-20T07:21:43.208Z,12.13
2022-11-20T07:24:12.747Z,11.47
2022-11-20T07:26:42.162Z,9.97
2022-11-20T07:29:11.699Z,9.97
2022-11-20T07:31:41.129Z,9.77
2022-11-20T07:34:13.219Z,11.27
2022-11-20T07:36:43.241Z,9.80
2022-11-20T07:39:12.705Z,11.07
2022-11-20T07:41:42.402Z,11.10
2022-11-20T07:44:11.898Z,11.67
2022-11-20T07:46:41.442Z,10.77
2022-11-20T07:49:13.559Z,9.33
2022-11-20T07:51:43.063Z,9.30
2022-11-20T07:54:12.556Z,10.17
2022-11-20T07:56:42.058Z,8.27
2022-11-20T07:59:12.851Z,9.17
2022-11-20T08:01:42.494Z,10.10
2022-11-20T08:04:17.165Z,9.60
2022-11-20T08:06:46.784Z,10.13
2022-11-20T08:09:16.253Z,9.77
2022-11-20T08:11:58.197Z,9.67
2022-11-20T08:14:28.745Z,9.80
2022-11-20T08:16:58.177Z,10.17
2022-11-20T08:19:30.577Z,9.83
2022-11-20T08:22:00.081Z,10.03
2022-11-20T08:24:29.551Z,10.47
2022-11-20T08:27:01.129Z,11.80
2022-11-20T08:29:31.041Z,10.17
2022-11-20T08:32:00.474Z,10.80
2022-11-20T08:34:32.575Z,11.07
2022-11-20T08:37:02.144Z,11.93
2022-11-20T08:39:31.577Z,11.23
2022-11-20T08:42:01.027Z,12.47
2022-11-20T08:44:30.605Z,15.17
2022-11-20T08:47:00.183Z,12.83
2022-11-20T08:49:32.239Z,11.73
2022-11-20T08:52:01.748Z,12.10
2022-11-20T08:54:31.176Z,11.43
2022-11-20T08:57:00.698Z,10.67
2022-11-20T09:00:03.811Z,11.77
2022-11-20T09:02:20.558Z,10.23
2022-11-20T09:04:52.580Z,10.50
2022-11-20T09:07:22.194Z,10.77
2022-11-20T09:10:16.493Z,10.47
2022-11-20T09:12:41.238Z,9.37
2022-11-20T09:15:12.307Z,10.20
2022-11-20T09:17:41.839Z,10.73
2022-11-20T09:20:14.363Z,10.00
2022-11-20T09:22:43.902Z,8.93
2022-11-20T09:25:13.356Z,8.60
2022-11-20T09:27:44.756Z,10.37
2022-11-20T09:30:14.894Z,9.73
2022-11-20T09:32:44.538Z,9.67
2022-11-20T09:35:16.622Z,10.00
2022-11-20T09:37:46.286Z,9.83
2022-11-20T09:40:22.950Z,9.60
2022-11-20T09:42:56.406Z,9.27
2022-11-20T09:45:28.469Z,8.80
2022-11-20T09:48:07.743Z,9.20
2022-11-20T09:50:41.333Z,9.90
2022-11-20T09:53:16.247Z,8.93
2022-11-20T09:55:46.188Z,8.60
2022-11-20T09:58:19.748Z,9.57
2022-11-20T10:00:50.630Z,9.50
2022-11-20T10:03:23.202Z,8.43
2022-11-20T10:05:56.932Z,11.07
2022-11-20T10:08:30.375Z,10.93
2022-11-20T10:11:02.778Z,10.97
2022-11-20T10:13:38.335Z,13.40
2022-11-20T10:16:15.345Z,12.03
2022-11-20T10:18:50.686Z,11.90
2022-11-20T10:21:27.583Z,12.77
2022-11-20T10:24:12.080Z,13.80
2022-11-20T10:26:45.939Z,12.73
2022-11-20T10:29:16.531Z,11.90
2022-11-20T10:31:47.571Z,12.67
2022-11-20T10:34:23.167Z,13.77
2022-11-20T10:36:58.492Z,12.43
2022-11-20T10:39:33.864Z,12.37
2022-11-20T10:42:03.423Z,12.00
2022-11-20T10:44:46.082Z,11.00
2022-11-20T10:47:17.193Z,8.63
2022-11-20T10:49:47.737Z,7.83
2022-11-20T10:52:22.423Z,9.23
2022-11-20T10:54:55.156Z,8.33
2022-11-20T10:57:33.135Z,9.37
2022-11-20T11:00:07.420Z,9.93
2022-11-20T11:02:38.848Z,10.10
2022-11-20T11:05:15.684Z,9.63
2022-11-20T11:07:48.116Z,9.90
2022-11-20T11:10:19.286Z,8.80
2022-11-20T11:12:49.486Z,8.57
2022-11-20T11:15:29.229Z,8.43
2022-11-20T11:17:58.959Z,15.87
2022-11-20T11:20:28.987Z,8.73
2022-11-20T11:23:01.664Z,8.87
2022-11-20T11:25:34.820Z,9.03
2022-11-20T11:28:05.306Z,17.50
2022-11-20T11:30:45.756Z,9.87
2022-11-20T11:33:15.925Z,11.73
2022-11-20T11:35:51.427Z,11.07
2022-11-20T11:38:26.073Z,10.13
2022-11-20T11:40:57.466Z,9.13
2022-11-20T11:43:41.993Z,9.43
2022-11-20T11:46:18.775Z,10.60
2022-11-20T11:48:58.064Z,10.20
2022-11-20T11:51:30.217Z,9.57
2022-11-20T11:54:03.369Z,11.48
2022-11-20T11:56:33.495Z,9.50
2022-11-20T11:59:05.554Z,9.50
2022-11-20T12:01:39.469Z,10.40
2022-11-20T12:04:15.022Z,9.77
2022-11-20T12:06:47.001Z,9.68
2022-11-20T12:09:20.216Z,9.73
2022-11-20T12:11:53.785Z,10.65
2022-11-20T12:14:27.407Z,11.18
2022-11-20T12:16:58.687Z,10.40
2022-11-20T12:19:29.543Z,10.75
2022-11-20T12:22:05.227Z,11.27
2022-11-20T12:24:46.496Z,15.70
2022-11-20T12:27:33.509Z,10.85
2022-11-20T12:30:05.165Z,6.72
2022-11-20T12:32:43.924Z,6.15
2022-11-20T12:35:21.003Z,5.03
2022-11-20T12:37:56.740Z,4.17
2022-11-20T12:40:32.467Z,4.50
2022-11-20T12:43:17.902Z,5.47
2022-11-20T12:45:58.106Z,6.20
2022-11-20T12:48:44.932Z,5.07
2022-11-20T12:51:32.516Z,4.73
2022-11-20T12:54:07.875Z,7.07
2022-11-20T12:56:44.345Z,5.10
2022-11-20T12:59:26.228Z,6.13
2022-11-20T13:01:59.427Z,6.13
2022-11-20T13:04:52.691Z,5.93
2022-11-20T13:07:23.712Z,6.27
2022-11-20T13:09:54.447Z,6.37
2022-11-20T13:12:28.257Z,6.27
2022-11-20T13:15:02.030Z,7.07
2022-11-20T13:17:35.721Z,7.13
2022-11-20T13:20:06.132Z,6.87
2022-11-20T13:22:46.561Z,6.97
2022-11-20T13:25:25.941Z,6.83
2022-11-20T13:27:58.557Z,7.27
2022-11-20T13:30:28.676Z,6.77
2022-11-20T13:33:00.882Z,6.93
2022-11-20T13:35:32.298Z,7.20
2022-11-20T13:38:06.399Z,6.87
2022-11-20T13:40:36.230Z,6.47
2022-11-20T13:43:14.855Z,6.60
2022-11-20T13:45:44.349Z,6.80
2022-11-20T13:48:23.795Z,6.93
2022-11-20T13:50:58.706Z,6.20
2022-11-20T13:53:34.677Z,6.77
2022-11-20T13:56:09.148Z,6.77
2022-11-20T13:58:49.947Z,6.53
2022-11-20T14:01:20.897Z,7.40
2022-11-20T14:04:05.510Z,6.53
2022-11-20T14:06:37.401Z,7.10
2022-11-20T14:09:07.074Z,6.83
2022-11-20T14:11:36.527Z,7.55
2022-11-20T14:14:16.882Z,6.85
2022-11-20T14:16:46.762Z,7.13
2022-11-20T14:19:32.477Z,9.20
2022-11-20T14:22:12.843Z,10.53
2022-11-20T14:24:42.365Z,9.80
2022-11-20T14:27:16.234Z,9.07
2022-11-20T14:29:48.777Z,9.90
2022-11-20T14:32:19.237Z,8.60
2022-11-20T14:34:49.677Z,9.30
2022-11-20T14:37:22.250Z,8.53
2022-11-20T14:39:53.074Z,9.07
2022-11-20T14:42:23.711Z,8.30
2022-11-20T14:44:58.887Z,7.63
2022-11-20T14:47:29.601Z,7.97
2022-11-20T14:49:59.453Z,8.50
2022-11-20T14:52:32.048Z,7.97
2022-11-20T14:55:02.779Z,8.15
2022-11-20T14:57:32.936Z,8.03
2022-11-20T15:00:23.040Z,8.80
2022-11-20T15:02:53.701Z,10.17
2022-11-20T15:05:24.573Z,9.57
2022-11-20T15:07:55.190Z,9.10
2022-11-20T15:10:26.362Z,8.83
2022-11-20T15:12:57.920Z,7.40
2022-11-20T15:15:33.134Z,8.43
2022-11-20T15:18:03.077Z,7.80
2022-11-20T15:20:35.724Z,7.03
2022-11-20T15:23:05.402Z,7.20
2022-11-20T15:25:34.848Z,6.93
2022-11-20T15:28:04.336Z,7.23
2022-11-20T15:30:36.491Z,7.10
2022-11-20T15:33:06.222Z,6.57
2022-11-20T15:35:35.693Z,7.77
2022-11-20T15:38:05.308Z,7.63
2022-11-20T15:40:34.943Z,7.87
2022-11-20T15:43:13.018Z,9.17
2022-11-20T15:45:47.125Z,10.10
2022-11-20T15:48:18.653Z,6.63
2022-11-20T15:50:52.520Z,7.50
2022-11-20T15:53:22.105Z,7.20
2022-11-20T15:55:51.877Z,7.57
2022-11-20T15:58:21.464Z,7.47
2022-11-20T16:00:53.644Z,8.93
2022-11-20T16:03:23.269Z,8.43
2022-11-20T16:05:52.762Z,7.55
2022-11-20T16:08:22.352Z,8.43
2022-11-20T16:10:51.819Z,8.03
2022-11-20T16:13:33.933Z,8.10
2022-11-20T16:16:10.194Z,8.00
2022-11-20T16:18:39.723Z,8.77
2022-11-20T16:21:14.929Z,7.17
2022-11-20T16:23:44.746Z,7.57
2022-11-20T16:26:14.929Z,8.77
2022-11-20T16:28:44.645Z,8.87
2022-11-20T16:31:18.022Z,7.50
2022-11-20T16:33:52.371Z,6.70
2022-11-20T16:36:22.539Z,9.13
2022-11-20T16:38:55.444Z,12.87
2022-11-20T16:41:26.727Z,10.80
2022-11-20T16:43:58.095Z,13.27
2022-11-20T16:46:31.056Z,10.43
2022-11-20T16:49:01.466Z,8.70
2022-11-20T16:51:32.123Z,8.80
2022-11-20T16:54:04.548Z,8.30
2022-11-20T16:56:34.206Z,8.63
2022-11-20T16:59:04.230Z,9.07
2022-11-20T17:01:40.105Z,10.70
2022-11-20T17:04:10.195Z,10.70
2022-11-20T17:06:41.056Z,10.70
2022-11-20T17:09:11.342Z,12.52
2022-11-20T17:11:40.845Z,11.77
2022-11-20T17:14:10.400Z,9.83
2022-11-20T17:16:43.105Z,9.87
2022-11-20T17:19:12.593Z,8.95
2022-11-20T17:21:42.360Z,9.03
2022-11-20T17:24:13.671Z,8.20
2022-11-20T17:26:44.044Z,7.47
2022-11-20T17:29:14.268Z,7.67
2022-11-20T17:31:46.732Z,8.87
2022-11-20T17:34:16.980Z,8.68
2022-11-20T17:36:46.966Z,10.00
2022-11-20T17:39:16.739Z,8.40
2022-11-20T17:42:06.591Z,8.63
2022-11-20T17:44:36.386Z,7.60
2022-11-20T17:47:08.534Z,7.30
2022-11-20T17:49:38.115Z,7.57
2022-11-20T17:52:07.898Z,7.87
2022-11-20T17:54:37.475Z,8.07
2022-11-20T17:57:19.333Z,11.40
2022-11-20T17:59:48.908Z,9.47
2022-11-20T18:02:20.959Z,8.10
2022-11-20T18:04:50.477Z,10.63
2022-11-20T18:07:20.058Z,14.23
2022-11-20T18:09:50.363Z,11.40
2022-11-20T18:12:19.826Z,10.17
2022-11-20T18:14:49.920Z,11.43
2022-11-20T18:17:22.029Z,12.00
2022-11-20T18:20:14.355Z,13.23
2022-11-20T18:22:41.247Z,9.97
2022-11-20T18:25:11.248Z,8.80
2022-11-20T18:27:41.114Z,8.80
2022-11-20T18:30:11.358Z,7.90
2022-11-20T18:32:43.612Z,7.57
2022-11-20T18:35:13.162Z,8.33
2022-11-20T18:37:42.580Z,7.03
2022-11-20T18:40:13.145Z,6.67
2022-11-20T18:42:55.166Z,6.80
2022-11-20T18:45:24.759Z,6.93
2022-11-20T18:47:56.861Z,7.10
2022-11-20T18:50:26.398Z,7.77
2022-11-20T18:52:55.864Z,9.53
2022-11-20T18:55:26.255Z,8.93
2022-11-20T18:57:55.783Z,8.03
2022-11-20T19:00:25.321Z,7.10
2022-11-20T19:02:58.195Z,7.30
2022-11-20T19:05:27.886Z,7.23
2022-11-20T19:07:57.338Z,7.57
2022-11-20T19:10:27.488Z,7.05
2022-11-20T19:12:58.569Z,6.57
2022-11-20T19:15:28.041Z,7.53
2022-11-20T19:18:01.353Z,6.68
2022-11-20T19:20:31.950Z,6.97
2022-11-20T19:23:01.442Z,7.07
2022-11-20T19:25:35.172Z,6.70
2022-11-20T19:28:07.911Z,6.57
2022-11-20T19:30:37.426Z,7.40
2022-11-20T19:33:09.536Z,7.27
2022-11-20T19:35:39.341Z,8.93
2022-11-20T19:38:08.886Z,7.93
2022-11-20T19:40:38.558Z,6.63
2022-11-20T19:43:08.011Z,6.70
2022-11-20T19:45:37.473Z,7.95
2022-11-20T19:48:09.695Z,7.00
2022-11-20T19:50:39.247Z,6.03
2022-11-20T19:53:08.667Z,9.07
2022-11-20T19:55:38.235Z,8.02
2022-11-20T19:58:07.859Z,7.90
2022-11-20T20:00:37.305Z,7.13
2022-11-20T20:03:09.402Z,6.25
2022-11-20T20:05:38.966Z,7.83
2022-11-20T20:08:08.502Z,7.20
2022-11-20T20:10:38.061Z,7.13
2022-11-20T20:13:07.681Z,8.03
2022-11-20T20:15:37.551Z,7.97
2022-11-20T20:18:09.712Z,8.00
2022-11-20T20:20:39.312Z,6.68
2022-11-20T20:23:09.195Z,11.75
2022-11-20T20:25:39.724Z,9.00
2022-11-20T20:28:09.194Z,8.47
2022-11-20T20:30:38.871Z,7.47
2022-11-20T20:33:10.987Z,6.50
2022-11-20T20:35:42.910Z,5.88
2022-11-20T20:38:12.463Z,5.88
2022-11-20T20:40:41.911Z,6.73
2022-11-20T20:43:11.395Z,6.43
2022-11-20T20:45:47.354Z,5.80
2022-11-20T20:48:20.137Z,6.28
2022-11-20T20:50:56.083Z,6.50
2022-11-20T20:53:25.653Z,6.07
2022-11-20T20:55:58.387Z,4.83
2022-11-20T20:58:28.441Z,6.88
2022-11-20T21:00:58.428Z,5.78
2022-11-20T21:03:32.979Z,5.82
2022-11-20T21:06:03.317Z,5.93
2022-11-20T21:08:32.922Z,5.40
2022-11-20T21:11:04.271Z,4.72
2022-11-20T21:13:34.054Z,5.57
2022-11-20T21:16:03.560Z,5.43
2022-11-20T21:18:36.087Z,5.30
2022-11-20T21:21:19.566Z,5.90
2022-11-20T21:23:49.441Z,5.45
2022-11-20T21:26:18.947Z,5.38
2022-11-20T21:28:48.633Z,5.63
2022-11-20T21:31:18.906Z,4.57
2022-11-20T21:33:52.377Z,4.10
2022-11-20T21:36:22.817Z,4.50
2022-11-20T21:38:54.022Z,4.43
2022-11-20T21:41:23.747Z,3.90
2022-11-20T21:46:44.029Z,4.13
2022-11-20T21:49:18.340Z,4.55
2022-11-20T21:51:47.878Z,4.35
2022-11-20T21:54:17.629Z,4.37
2022-11-20T21:56:47.178Z,3.95
2022-11-20T21:59:16.796Z,3.78
2022-11-20T22:01:46.443Z,3.15
2022-11-20T22:04:18.659Z,3.33
2022-11-20T22:06:48.845Z,3.30
2022-11-20T22:09:18.334Z,2.92
2022-11-20T22:11:47.757Z,3.00
2022-11-20T22:14:20.796Z,2.83
2022-11-20T22:16:51.104Z,2.53
2022-11-20T22:19:23.829Z,1.80
2022-11-20T22:21:53.685Z,3.13
2022-11-20T22:24:24.447Z,2.50
2022-11-20T22:26:54.192Z,2.37
2022-11-20T22:29:24.303Z,2.60
2022-11-20T22:31:54.791Z,2.33
2022-11-20T22:34:27.123Z,2.60
2022-11-20T22:36:56.778Z,2.13
2022-11-20T22:39:26.215Z,5.07
2022-11-20T22:41:55.684Z,2.93
2022-11-20T22:44:25.468Z,2.20
2022-11-20T22:46:55.319Z,2.17
2022-11-20T22:49:27.512Z,1.90
2022-11-20T22:51:57.126Z,2.30
2022-11-20T22:54:26.687Z,2.47
2022-11-20T22:56:56.348Z,2.10
2022-11-20T22:59:25.918Z,2.20
2022-11-20T23:01:55.464Z,1.97
2022-11-20T23:04:27.719Z,2.13
2022-11-20T23:06:57.376Z,2.27
2022-11-20T23:09:26.946Z,1.87
2022-11-20T23:11:56.544Z,1.95
2022-11-20T23:14:27.809Z,2.20
2022-11-20T23:16:57.867Z,1.75
2022-11-20T23:19:29.951Z,1.83
2022-11-20T23:21:59.534Z,1.37
2022-11-20T23:24:29.301Z,1.40
2022-11-20T23:26:58.992Z,1.88
2022-11-20T23:29:28.580Z,1.83
2022-11-20T23:31:58.214Z,1.65
2022-11-20T23:34:30.380Z,1.55
2022-11-20T23:37:01.201Z,1.60
2022-11-20T23:39:30.915Z,1.80
2022-11-20T23:42:00.430Z,1.10
2022-11-20T23:44:30.358Z,1.57
2022-11-20T23:46:59.929Z,1.60
2022-11-20T23:49:32.124Z,1.63
2022-11-20T23:52:01.729Z,1.57
2022-11-20T23:54:31.196Z,1.17
2022-11-20T23:57:00.810Z,1.60
2022-11-20T23:59:30.429Z,1.80
